Archival Weather

Chicago O'Hare International

Chicago, Illinois (KORD)

Report from: Tuesday, May 2, 2023 12:51 PM CDT
Current time: Sunday, February 25, 2024 3:30 PM CST

Current weather – Weather history – Daily summaries
Weather forecast

Temperature12.2°C (54.0°F)
Dew point0.0°C (32.0°F)
Winds 14 kts (7.2 m/s, 16.1 mph) Northwest (310°)
Wind gusts 24 kts (12.3 m/s, 27.6 mph)
Peak wind 27 kts (13.9 m/s, 31.1 mph) West-Northwest (300°) at 17:32
Visibility10 mi. (16.1 km)
Clouds Ceiling: Overcast 5,500 ft. (1,676 m)
Altimeter29.57 in.Hg (1001 mB)
Relative humidity43 %
Density altitude168 ft. (51 m)
Sea-level pressure100.1 kPa (1001 mB, 29.57 in.Hg)
Max temp last 6 hours12.2°C (54.0°F)
Min temp last 6 hours6.7°C (44.1°F)
Remarks Automated weather observing station with precipitation discriminator
Pressure rising, then falling
Flight conditions Visual Meteorological Conditions
Raw dataKORD 021751Z 31014G24KT 10SM OVC055 12/00 A2957 RMK AO2 PK WND 30027/1732 SLP013 T01220000 10122 20067 50001
An error has occurred. This application may no longer respond until reloaded. Reload 🗙